Time;durP1;ratioP1;P1;durP2;ratioP2;P2;SDS_P1;SDS_P2;PMS_P1;PMS_P2;Temp;Humidity;BMP_temperature;BMP_pressure;BME280_temperature;BME280_humidity;BME280_pressure;Samples;Min_cycle;Max_cycle;Signal;HPM_P1;HPM_P2
2022/05/31 00:02:34;;;;;;;8.83;4.70;;;;;;;16.74;76.89;99932.41;1772035;81;21800;-77
2022/05/31 00:05:39;;;;;;;11.65;5.03;;;;;;;16.75;76.97;99934.13;1772102;81;21145;-77
2022/05/31 00:08:45;;;;;;;10.25;4.72;;;;;;;16.79;77.03;99935.88;1770961;81;21699;-77
2022/05/31 00:11:51;;;;;;;9.25;4.25;;;;;;;16.81;77.06;99938.73;1772205;81;21173;-77
2022/05/31 00:14:58;;;;;;;6.47;4.40;;;;;;;16.85;77.09;99937.22;1771640;81;21185;-77
2022/05/31 00:17:56;;;;;;;6.35;4.87;;;;;;;16.86;77.12;99932.54;1772024;81;21189;-77
2022/05/31 00:21:01;;;;;;;7.62;5.12;;;;;;;16.87;77.19;99938.36;1772074;81;21150;-77
2022/05/31 00:24:07;;;;;;;12.05;4.95;;;;;;;16.86;77.15;99943.05;1772009;81;21165;-76
2022/05/31 00:27:13;;;;;;;15.05;4.62;;;;;;;16.88;77.19;99935.06;1772057;81;21158;-77
2022/05/31 00:30:19;;;;;;;10.50;4.87;;;;;;;16.89;77.18;99940.38;1771945;81;21221;-77
2022/05/31 00:33:25;;;;;;;6.33;4.15;;;;;;;16.89;77.13;99936.23;1785282;80;21165;-77
2022/05/31 00:36:24;;;;;;;5.67;4.45;;;;;;;16.87;77.01;99942.51;1785620;80;21701;-77
2022/05/31 00:39:29;;;;;;;9.28;5.00;;;;;;;16.85;76.94;99930.86;1784259;80;21145;-77
2022/05/31 00:42:34;;;;;;;8.05;4.67;;;;;;;16.82;76.91;99935.44;1784177;80;21188;-77
2022/05/31 00:46:08;;;;;;;11.15;4.78;;;;;;;16.79;76.93;99930.36;1785691;80;21180;-77
2022/05/31 00:49:14;;;;;;;9.53;4.62;;;;;;;16.78;76.87;99932.81;1784259;80;21205;-77
2022/05/31 00:52:30;;;;;;;13.35;4.62;;;;;;;16.75;76.86;99930.50;1785641;80;21216;-77
2022/05/31 00:55:42;;;;;;;11.73;5.10;;;;;;;16.76;76.89;99934.97;1785730;80;21180;-83
2022/05/31 00:59:09;;;;;;;5.30;4.00;;;;;;;16.76;76.89;99934.97;1784515;80;21734;-83
2022/05/31 01:02:17;;;;;;;10.72;4.47;;;;;;;16.77;76.87;99935.28;1785622;80;21192;-77
2022/05/31 01:05:15;;;;;;;8.48;4.47;;;;;;;16.75;76.83;99932.75;1785608;80;21140;-77
2022/05/31 01:08:10;;;;;;;11.18;4.62;;;;;;;16.76;76.85;99935.81;1784192;80;21204;-77
2022/05/31 01:11:26;;;;;;;8.55;4.53;;;;;;;16.79;76.82;99939.48;1777077;80;21157;-77
2022/05/31 01:14:49;;;;;;;9.13;4.70;;;;;;;16.82;76.77;99941.80;1785222;80;21177;-76
2022/05/31 01:18:02;;;;;;;11.55;4.80;;;;;;;16.83;76.62;99938.50;1763312;80;21742;-77
2022/05/31 01:21:26;;;;;;;12.80;4.78;;;;;;;16.83;76.67;99944.03;1785648;80;21169;-77
2022/05/31 01:24:37;;;;;;;10.58;4.65;;;;;;;16.83;76.75;99947.63;1785896;80;21679;-77
2022/05/31 01:28:01;;;;;;;7.85;5.12;;;;;;;16.82;76.87;99943.19;1785869;80;21733;-77
2022/05/31 01:31:19;;;;;;;12.82;5.17;;;;;;;16.82;76.97;99946.48;1785643;80;21726;-77
2022/05/31 01:34:40;;;;;;;11.05;4.90;;;;;;;16.81;77.13;99940.13;1784359;80;21786;-77
2022/05/31 01:38:03;;;;;;;10.05;5.15;;;;;;;16.82;77.38;99940.97;1785236;80;21808;-77
2022/05/31 01:41:09;;;;;;;17.82;5.83;;;;;;;16.84;77.88;99933.28;1785685;80;21145;-77
2022/05/31 01:44:18;;;;;;;10.08;4.83;;;;;;;16.84;78.10;99940.19;1784207;80;21841;-77
2022/05/31 01:47:24;;;;;;;8.58;5.10;;;;;;;16.83;78.17;99933.82;1784056;80;21758;-77
2022/05/31 01:50:31;;;;;;;8.15;4.70;;;;;;;16.81;78.12;99942.05;1785753;80;21211;-77
2022/05/31 01:53:35;;;;;;;10.08;4.35;;;;;;;16.79;78.15;99940.86;1785675;80;22060;-77
2022/05/31 01:56:41;;;;;;;7.25;5.25;;;;;;;16.78;78.21;99939.72;1785777;80;21144;-77
2022/05/31 01:59:54;;;;;;;8.23;4.60;;;;;;;16.78;78.25;99937.80;1785658;80;21161;-77
2022/05/31 02:03:03;;;;;;;8.48;4.47;;;;;;;16.80;78.30;99937.59;1785739;80;21185;-77
2022/05/31 02:06:09;;;;;;;9.70;5.40;;;;;;;16.84;78.29;99942.45;1785735;80;21142;-77
2022/05/31 02:09:18;;;;;;;7.20;3.77;;;;;;;16.89;78.22;99948.67;1785699;80;21192;-77
2022/05/31 02:12:26;;;;;;;8.73;4.20;;;;;;;16.95;78.08;99939.47;1785849;80;21220;-77
2022/05/31 02:15:49;;;;;;;7.87;4.45;;;;;;;17.03;77.93;99941.95;1785783;80;21153;-77
2022/05/31 02:22:22;;;;;;;6.72;4.22;;;;;;;17.22;77.41;99940.06;1785465;80;21220;-76
2022/05/31 02:25:17;;;;;;;15.58;4.42;;;;;;;17.33;77.05;99935.68;1785695;80;21152;-76
2022/05/31 02:28:23;;;;;;;7.67;4.72;;;;;;;17.46;76.69;99940.22;1784125;80;21726;-76
2022/05/31 02:31:28;;;;;;;10.18;4.90;;;;;;;17.59;76.17;99940.05;1784846;80;21714;-76
2022/05/31 02:34:36;;;;;;;7.75;4.28;;;;;;;17.77;75.53;99940.61;1784147;80;21180;-76
2022/05/31 02:37:41;;;;;;;14.83;4.08;;;;;;;17.91;74.99;99939.35;1785580;80;21754;-76
2022/05/31 02:40:47;;;;;;;9.95;4.65;;;;;;;18.06;74.35;99945.85;1784738;80;21200;-76
2022/05/31 02:43:54;;;;;;;10.43;4.42;;;;;;;18.20;73.82;99943.74;1785713;80;21188;-76
2022/05/31 02:47:01;;;;;;;7.25;3.90;;;;;;;18.33;73.39;99943.01;1785559;80;21180;-76
2022/05/31 02:50:07;;;;;;;10.60;4.78;;;;;;;18.48;72.84;99942.56;1785753;80;21632;-76
2022/05/31 02:53:13;;;;;;;14.78;4.42;;;;;;;18.62;72.30;99942.66;1785671;80;21194;-76
2022/05/31 02:56:19;;;;;;;9.80;5.00;;;;;;;18.86;71.54;99939.95;1785757;80;21624;-77
2022/05/31 02:59:35;;;;;;;12.90;4.90;;;;;;;19.10;70.72;99936.13;1785639;80;21580;-76
2022/05/31 03:02:45;;;;;;;12.73;4.33;;;;;;;19.40;69.62;99933.75;1784279;80;21153;-77
2022/05/31 03:05:43;;;;;;;15.30;4.95;;;;;;;19.66;68.68;99929.06;1784165;80;21718;-76
2022/05/31 03:08:44;;;;;;;10.23;5.08;;;;;;;19.90;67.42;99934.03;1763396;80;21161;-77
2022/05/31 03:12:02;;;;;;;11.10;5.10;;;;;;;20.12;66.75;99938.88;1785518;80;21133;-76
2022/05/31 03:15:15;;;;;;;9.18;4.97;;;;;;;20.21;66.15;99932.39;1785516;80;21196;-76
2022/05/31 03:18:24;;;;;;;9.93;5.00;;;;;;;20.22;66.06;99931.29;1785764;80;21168;-76
2022/05/31 03:21:33;;;;;;;10.30;3.92;;;;;;;20.32;65.72;99934.25;1785663;80;21184;-77
2022/05/31 03:24:43;;;;;;;10.83;4.83;;;;;;;20.52;65.35;99927.73;1785952;80;21149;-76
2022/05/31 03:27:50;;;;;;;7.92;4.35;;;;;;;20.70;64.78;99926.63;1785270;80;21188;-77
2022/05/31 03:30:49;;;;;;;6.33;4.03;;;;;;;20.82;64.36;99922.39;1784860;80;21177;-76
2022/05/31 03:33:44;;;;;;;9.40;4.50;;;;;;;20.91;64.19;99927.81;1784489;80;21220;-77
2022/05/31 03:36:50;;;;;;;11.95;4.30;;;;;;;20.96;64.01;99932.63;1746689;82;21696;-77
2022/05/31 03:39:56;;;;;;;7.50;4.25;;;;;;;20.98;63.89;99932.64;1746657;82;21159;-77
2022/05/31 03:43:07;;;;;;;15.63;4.67;;;;;;;21.12;63.94;99936.76;1746122;82;21226;-77
2022/05/31 03:46:23;;;;;;;10.05;4.28;;;;;;;21.30;63.64;99929.23;1715949;82;21199;-77
2022/05/31 03:49:41;;;;;;;10.87;4.53;;;;;;;21.42;63.19;99929.46;1745578;82;21809;-82
2022/05/31 03:52:35;;;;;;;6.53;3.98;;;;;;;21.43;63.14;99928.91;1746413;82;22262;-83
2022/05/31 03:55:21;;;;;;;12.23;4.65;;;;;;;21.41;62.98;99924.16;1746751;82;21180;-82
2022/05/31 03:58:27;;;;;;;;;;;;;;;21.47;63.18;99924.52;1749471;82;21215;-82
2022/05/31 04:01:43;;;;;;;14.00;4.12;;;;;;;21.59;63.24;99914.09;1745338;82;20175;-83
2022/05/31 04:04:49;;;;;;;14.30;5.03;;;;;;;21.75;62.95;99924.89;1746658;82;21160;-82
2022/05/31 04:07:58;;;;;;;12.43;4.50;;;;;;;21.73;62.89;99922.06;1745533;82;21199;-82
2022/05/31 04:11:04;;;;;;;11.53;5.08;;;;;;;21.73;63.33;99929.02;1724813;82;21187;-83
2022/05/31 04:14:09;;;;;;;10.68;4.70;;;;;;;21.76;63.55;99919.60;1745404;82;21151;-83
2022/05/31 04:17:17;;;;;;;8.75;5.20;;;;;;;21.87;63.71;99924.19;1745557;82;21199;-82
2022/05/31 04:20:22;;;;;;;6.58;4.87;;;;;;;21.93;63.63;99922.33;1746631;82;21155;-82
2022/05/31 04:26:54;;;;;;;10.38;4.47;;;;;;;22.11;63.07;99919.23;1746627;82;21271;-83
2022/05/31 04:29:56;;;;;;;15.72;5.50;;;;;;;22.14;63.23;99917.30;1746683;82;21132;-82
2022/05/31 04:33:17;;;;;;;9.68;4.97;;;;;;;22.17;63.49;99911.20;1691590;83;21227;-83
2022/05/31 04:36:25;;;;;;;12.88;5.80;;;;;;;22.29;63.54;99908.80;1693322;83;21192;-82
2022/05/31 04:39:30;;;;;;;6.47;3.90;;;;;;;22.40;63.04;99908.66;1772027;81;21758;-82
2022/05/31 04:42:39;;;;;;;9.45;4.58;;;;;;;22.49;63.14;99913.20;1770711;81;21691;-83
2022/05/31 04:45:58;;;;;;;8.55;4.60;;;;;;;22.55;63.27;99904.33;1771919;81;21180;-82
2022/05/31 04:49:05;;;;;;;15.03;5.50;;;;;;;22.62;63.14;99918.31;1771608;81;21169;-82
2022/05/31 04:52:12;;;;;;;10.63;5.03;;;;;;;22.70;62.94;99917.84;1771038;81;21170;-82
2022/05/31 04:55:18;;;;;;;9.43;4.72;;;;;;;22.88;62.74;99915.77;1771931;81;21676;-82
2022/05/31 04:58:26;;;;;;;11.22;5.33;;;;;;;23.03;62.38;99910.32;1771074;81;21189;-82
2022/05/31 05:01:32;;;;;;;10.88;4.70;;;;;;;23.14;61.47;99901.46;1771629;81;21138;-82
2022/05/31 05:04:39;;;;;;;10.90;5.47;;;;;;;23.21;60.71;99899.28;1771448;80;21165;-82
2022/05/31 05:07:48;;;;;;;8.25;5.00;;;;;;;23.26;60.82;99902.66;1769740;81;21240;-82
2022/05/31 05:10:56;;;;;;;8.85;4.83;;;;;;;23.21;61.20;99891.76;1771966;81;21154;-82
2022/05/31 05:14:09;;;;;;;11.55;5.10;;;;;;;23.27;61.90;99891.78;1772147;81;21169;-82
2022/05/31 05:17:17;;;;;;;11.22;4.97;;;;;;;23.33;61.59;99891.53;1770521;81;21205;-82
2022/05/31 05:20:24;;;;;;;10.38;5.42;;;;;;;23.35;61.27;99888.48;1770605;80;21672;-82
2022/05/31 05:23:22;;;;;;;10.45;5.53;;;;;;;23.38;61.73;99900.48;1771178;81;21189;-83
2022/05/31 05:26:17;;;;;;;13.60;5.10;;;;;;;23.39;62.05;99900.80;1741483;81;21150;-83
2022/05/31 05:32:50;;;;;;;12.03;5.30;;;;;;;23.67;61.78;99900.41;1739990;82;21185;-83
2022/05/31 05:35:58;;;;;;;13.95;4.90;;;;;;;23.89;60.63;99899.35;1741534;82;21165;-83
2022/05/31 05:39:10;;;;;;;8.45;4.72;;;;;;;24.06;60.64;99899.97;1715751;83;21206;-83
2022/05/31 05:42:16;;;;;;;11.33;4.87;;;;;;;24.26;59.31;99913.70;1714636;83;21215;-83
2022/05/31 05:45:40;;;;;;;14.38;4.47;;;;;;;24.39;59.11;99920.20;1716898;83;21729;-83
2022/05/31 05:48:47;;;;;;;10.00;4.58;;;;;;;24.50;58.81;99926.08;1716893;83;21176;-84
2022/05/31 05:51:53;;;;;;;11.05;4.47;;;;;;;24.61;57.98;99933.37;1716724;83;21800;-83
2022/05/31 05:55:17;;;;;;;11.20;5.50;;;;;;;24.69;58.12;99931.40;1717132;83;21781;-83
2022/05/31 05:58:40;;;;;;;16.77;5.42;;;;;;;24.77;57.77;99932.81;1716096;83;21203;-83
2022/05/31 06:02:07;;;;;;;18.32;4.72;;;;;;;24.78;57.58;99928.89;1716967;83;21159;-83
2022/05/31 06:05:24;;;;;;;11.22;4.60;;;;;;;24.82;58.17;99926.38;1712679;83;21227;-83
2022/05/31 06:08:32;;;;;;;10.53;5.08;;;;;;;24.85;58.28;99924.44;1717058;83;21190;-83
2022/05/31 06:11:28;;;;;;;9.93;4.78;;;;;;;24.83;58.41;99918.27;1717063;83;21721;-83
2022/05/31 06:14:21;;;;;;;11.35;5.53;;;;;;;24.90;57.85;99906.25;1718903;82;21215;-83
2022/05/31 06:17:18;;;;;;;13.20;5.40;;;;;;;24.90;57.98;99902.05;1732270;82;21195;-83
2022/05/31 06:20:07;;;;;;;12.40;4.70;;;;;;;24.95;58.40;99904.28;1745164;82;21175;-83
2022/05/31 06:23:00;;;;;;;12.28;5.58;;;;;;;25.01;58.54;99902.31;1737141;82;21813;-83
2022/05/31 06:25:48;;;;;;;10.25;5.03;;;;;;;25.09;58.85;99902.34;1746809;82;21603;-82
2022/05/31 06:28:42;;;;;;;15.83;5.45;;;;;;;25.21;58.33;99910.70;1710463;82;21523;-82
2022/05/31 06:31:28;;;;;;;12.65;5.10;;;;;;;25.31;57.47;99914.03;1728622;82;21144;-82
2022/05/31 06:34:37;;;;;;;9.33;5.37;;;;;;;25.42;57.87;99921.30;1730996;80;21182;-83
2022/05/31 06:37:49;;;;;;;10.20;5.58;;;;;;;25.57;57.35;99916.22;1734005;80;21165;-82
2022/05/31 06:40:55;;;;;;;10.85;5.20;;;;;;;25.66;57.11;99920.11;1771081;80;21760;-78
2022/05/31 06:44:07;;;;;;;14.35;5.62;;;;;;;25.71;57.28;99925.69;1726578;80;21206;-78
2022/05/31 06:47:31;;;;;;;11.43;5.03;;;;;;;25.82;57.25;99914.47;1771054;80;21161;-83
2022/05/31 06:51:06;;;;;;;13.13;5.15;;;;;;;25.83;57.00;99917.00;1775791;79;21169;-83
2022/05/31 06:57:56;;;;;;;21.37;5.65;;;;;;;25.72;57.06;99924.55;1774593;80;21202;-83
2022/05/31 07:01:03;;;;;;;9.70;5.42;;;;;;;25.74;58.29;99922.33;1770793;80;21157;-83
2022/05/31 07:04:08;;;;;;;9.35;4.97;;;;;;;25.94;57.64;99924.23;1773641;80;21089;-83
2022/05/31 07:07:14;;;;;;;12.10;5.60;;;;;;;26.16;57.67;99930.85;1772985;80;21272;-83
2022/05/31 07:10:21;;;;;;;14.75;5.80;;;;;;;26.34;56.26;99932.69;1777605;80;21144;-83
2022/05/31 07:13:41;;;;;;;8.58;5.37;;;;;;;26.44;56.50;99933.52;1771253;80;21719;-83
2022/05/31 07:17:04;;;;;;;15.35;5.40;;;;;;;26.57;55.71;99922.75;1708536;83;21183;-83
2022/05/31 07:20:14;;;;;;;12.30;5.23;;;;;;;26.64;55.18;99921.88;1714524;83;21595;-83
2022/05/31 07:23:19;;;;;;;16.52;5.15;;;;;;;26.71;55.47;99924.60;1719672;82;21229;-83
2022/05/31 07:26:27;;;;;;;15.80;5.30;;;;;;;26.79;54.99;99913.33;1729867;82;21718;-83
2022/05/31 07:29:36;;;;;;;12.73;5.60;;;;;;;26.92;54.38;99921.65;1721270;82;21185;-83
2022/05/31 07:32:41;;;;;;;13.72;4.97;;;;;;;26.92;54.73;99921.08;1705698;83;21223;-83
2022/05/31 07:35:49;;;;;;;10.98;5.22;;;;;;;26.95;54.92;99915.42;1720423;83;21186;-83
2022/05/31 07:38:56;;;;;;;11.35;5.20;;;;;;;26.97;54.74;99918.80;1701039;83;22055;-78
2022/05/31 07:42:02;;;;;;;14.80;6.05;;;;;;;26.99;54.04;99913.70;1713345;83;21730;-78
2022/05/31 07:45:11;;;;;;;11.65;5.72;;;;;;;27.07;54.38;99921.50;1691672;83;21244;-78
2022/05/31 07:48:19;;;;;;;11.50;5.10;;;;;;;27.17;53.96;99907.96;1711041;83;21214;-78
2022/05/31 07:51:26;;;;;;;13.10;4.90;;;;;;;27.26;53.68;99918.82;1695588;82;21228;-78
2022/05/31 07:54:48;;;;;;;12.53;5.47;;;;;;;27.22;53.48;99911.55;1700417;83;21182;-78
2022/05/31 08:01:48;;;;;;;11.22;5.10;;;;;;;27.26;54.19;99905.62;1696456;83;21790;-78
2022/05/31 08:04:58;;;;;;;12.60;4.75;;;;;;;27.19;54.20;99909.33;1703406;82;21172;-78
2022/05/31 08:08:03;;;;;;;12.45;4.80;;;;;;;27.21;54.64;99900.06;1732404;82;21176;-78
2022/05/31 08:11:21;;;;;;;22.02;5.53;;;;;;;27.37;54.31;99906.91;1699466;84;21261;-78
2022/05/31 08:14:27;;;;;;;18.77;4.45;;;;;;;27.56;54.65;99907.81;1708356;83;21800;-79
2022/05/31 08:17:32;;;;;;;12.05;5.00;;;;;;;27.75;52.81;99903.11;1702591;84;21148;-78
2022/05/31 08:20:39;;;;;;;14.43;4.72;;;;;;;27.92;52.80;99911.63;1697435;84;21232;-77
2022/05/31 08:23:43;;;;;;;11.33;4.53;;;;;;;27.97;51.75;99909.58;1715346;83;21225;-78
2022/05/31 08:26:50;;;;;;;8.65;4.60;;;;;;;27.96;52.05;99903.70;1705889;84;21173;-77
2022/05/31 08:29:55;;;;;;;11.50;4.35;;;;;;;28.02;51.58;99901.08;1708570;82;21170;-77
2022/05/31 08:33:01;;;;;;;16.90;4.72;;;;;;;28.08;51.96;99898.19;1718469;82;21200;-77
2022/05/31 08:36:06;;;;;;;11.78;4.70;;;;;;;28.10;51.13;99895.36;1708833;83;21770;-78
2022/05/31 08:39:11;;;;;;;13.70;3.95;;;;;;;28.06;51.67;99888.66;1682394;84;21789;-77
2022/05/31 08:42:23;;;;;;;20.75;4.58;;;;;;;28.10;51.77;99890.31;1699156;84;21206;-77
2022/05/31 08:45:57;;;;;;;7.90;4.20;;;;;;;28.14;51.16;99886.59;1760007;80;21193;-77
2022/05/31 08:51:52;;;;;;;8.18;4.05;;;;;;;28.20;51.67;99889.58;1770168;80;22241;-77
2022/05/31 08:52:37;;;;;;;8.90;4.50;;;;;;;28.27;50.67;99890.02;1748009;82;21185;-77
2022/05/31 08:59:21;;;;;;;9.75;4.37;;;;;;;28.40;50.43;99878.63;1702196;83;21261;-77
2022/05/31 09:02:30;;;;;;;8.58;3.98;;;;;;;28.46;49.79;99873.17;1775894;80;21197;-78
2022/05/31 09:05:46;;;;;;;10.80;3.67;;;;;;;28.56;50.58;99876.42;1716857;82;21189;-77
2022/05/31 09:09:12;;;;;;;11.83;3.72;;;;;;;28.67;47.53;99885.52;1763134;80;21248;-78
2022/05/31 09:12:41;;;;;;;12.05;3.77;;;;;;;28.74;46.79;99881.15;1766378;80;22090;-77
2022/05/31 09:16:00;;;;;;;12.98;3.40;;;;;;;28.81;47.33;99891.20;1776750;80;21156;-78
2022/05/31 09:19:07;;;;;;;8.60;3.20;;;;;;;28.93;45.27;99876.88;1752168;80;21131;-77
2022/05/31 09:22:13;;;;;;;6.95;3.47;;;;;;;28.93;45.27;99876.88;1765741;80;22525;-78
2022/05/31 09:25:19;;;;;;;9.98;3.27;;;;;;;28.98;45.70;99887.25;1732808;82;21148;-78
2022/05/31 09:28:42;;;;;;;17.98;4.25;;;;;;;28.99;45.52;99891.19;1760254;80;21202;-78
2022/05/31 09:31:53;;;;;;;9.25;3.35;;;;;;;29.08;46.70;99888.50;1765630;80;21502;-77
2022/05/31 09:35:13;;;;;;;11.65;3.35;;;;;;;29.17;47.29;99883.82;1765405;80;21172;-77
2022/05/31 09:38:42;;;;;;;13.65;4.35;;;;;;;29.34;46.97;99886.59;1759130;80;21674;-78
2022/05/31 09:42:11;;;;;;;13.43;4.60;;;;;;;29.44;46.64;99888.63;1715583;82;21498;-78
2022/05/31 09:45:19;;;;;;;9.78;4.05;;;;;;;29.53;46.65;99891.56;1748455;81;21143;-77
2022/05/31 09:48:27;;;;;;;8.75;3.98;;;;;;;29.62;46.43;99891.12;1756780;81;21201;-83
2022/05/31 09:51:40;;;;;;;16.00;5.05;;;;;;;29.67;45.28;99896.66;1755124;81;21099;-83
2022/05/31 09:59:11;;;;;;;9.15;3.75;;;;;;;29.54;46.09;99897.45;1696394;84;21307;-78
2022/05/31 10:02:42;;;;;;;12.70;4.85;;;;;;;29.56;45.53;99895.20;1833654;76;22279;-82
2022/05/31 10:05:52;;;;;;;18.92;5.17;;;;;;;29.47;44.38;99901.27;1752419;82;21109;-82
2022/05/31 10:09:00;;;;;;;;;;;;;;;29.32;44.93;99894.53;1756511;80;21736;-83
2022/05/31 10:12:34;;;;;;;17.92;5.20;;;;;;;29.31;45.76;99897.89;1752691;82;20867;-83
2022/05/31 10:15:56;;;;;;;11.60;4.25;;;;;;;29.36;46.16;99895.55;1766008;80;21225;-83
2022/05/31 10:19:03;;;;;;;10.58;4.55;;;;;;;29.53;46.75;99891.56;1749970;80;21160;-84
2022/05/31 10:22:25;;;;;;;12.70;5.53;;;;;;;29.65;44.84;99880.65;1744448;81;21193;-84
2022/05/31 10:26:03;;;;;;;10.10;4.20;;;;;;;29.70;44.55;99876.31;1747645;80;21175;-83
2022/05/31 10:29:30;;;;;;;15.32;3.87;;;;;;;29.79;44.19;99881.47;1699485;83;21211;-83
2022/05/31 10:33:00;;;;;;;9.85;4.12;;;;;;;29.89;43.38;99883.23;1685286;82;21217;-83
2022/05/31 10:36:16;;;;;;;10.50;3.37;;;;;;;30.03;41.90;99874.75;1699801;82;21236;-83
2022/05/31 10:39:24;;;;;;;12.33;3.20;;;;;;;30.16;41.89;99869.70;1733229;82;21229;-83
2022/05/31 10:42:31;;;;;;;13.20;3.25;;;;;;;30.30;40.22;99868.22;1709985;84;21751;-83
2022/05/31 10:45:38;;;;;;;8.08;2.77;;;;;;;30.35;39.16;99877.14;1719183;83;21748;-83
2022/05/31 10:48:52;;;;;;;8.25;2.77;;;;;;;30.34;38.27;99873.48;1735593;82;21175;-84
2022/05/31 10:52:44;;;;;;;14.50;3.58;;;;;;;30.31;38.87;99876.97;1717864;82;21169;-83
2022/05/31 10:56:03;;;;;;;13.22;3.52;;;;;;;30.28;39.47;99874.19;1716681;82;21165;-83
2022/05/31 10:59:13;;;;;;;10.93;2.70;;;;;;;30.27;39.81;99873.94;1715058;83;21251;-83
2022/05/31 11:03:01;;;;;;;15.13;3.30;;;;;;;30.34;39.40;99869.83;1714728;82;21237;-82
2022/05/31 11:06:30;;;;;;;7.60;2.98;;;;;;;30.45;39.57;99865.05;1729548;82;21248;-83
2022/05/31 11:13:21;;;;;;;9.03;3.12;;;;;;;30.62;39.99;99877.03;1718877;83;21201;-83
2022/05/31 11:16:50;;;;;;;14.43;3.30;;;;;;;30.54;40.31;99872.19;1695530;83;21304;-84
2022/05/31 11:20:12;;;;;;;11.53;3.75;;;;;;;30.54;40.50;99864.55;1703753;83;21764;-83
2022/05/31 11:23:46;;;;;;;12.80;3.72;;;;;;;30.58;41.61;99863.89;1708105;83;21177;-83
2022/05/31 11:27:41;;;;;;;8.78;2.80;;;;;;;30.56;39.54;99868.45;1718838;83;21690;-78
2022/05/31 11:31:20;;;;;;;12.73;3.45;;;;;;;30.47;40.35;99861.32;1716146;83;21281;-78
2022/05/31 11:35:01;;;;;;;11.55;3.47;;;;;;;30.31;41.29;99867.67;1688106;85;21181;-78
2022/05/31 11:38:12;;;;;;;13.05;3.42;;;;;;;30.26;42.44;99862.98;1640707;87;21243;-77
2022/05/31 11:41:53;;;;;;;9.68;3.40;;;;;;;30.31;42.37;99858.63;1761647;80;21732;-77
2022/05/31 11:45:16;;;;;;;18.60;3.27;;;;;;;30.28;41.47;99862.91;1758039;80;21153;-78
2022/05/31 11:48:44;;;;;;;14.05;3.37;;;;;;;30.27;42.07;99864.06;1757972;80;21149;-78
2022/05/31 11:52:09;;;;;;;17.40;3.45;;;;;;;30.33;40.56;99863.94;1750323;81;21161;-77
2022/05/31 11:55:33;;;;;;;7.58;2.58;;;;;;;30.36;40.58;99858.50;1760075;80;21165;-77
2022/05/31 11:59:14;;;;;;;8.65;2.80;;;;;;;30.44;40.19;99859.70;1754698;80;21105;-77
2022/05/31 12:03:01;;;;;;;6.67;3.40;;;;;;;30.42;39.96;99857.22;1770165;80;21306;-77
2022/05/31 12:06:24;;;;;;;10.85;3.10;;;;;;;30.38;40.98;99853.94;1752267;82;21511;-77
2022/05/31 12:09:37;;;;;;;9.28;3.25;;;;;;;30.32;40.79;99850.42;1752395;82;21240;-77
2022/05/31 12:12:44;;;;;;;10.28;2.85;;;;;;;30.31;39.60;99856.39;1751260;82;21193;-77
2022/05/31 12:15:52;;;;;;;18.15;2.50;;;;;;;30.24;40.04;99847.77;1752482;82;21157;-77
2022/05/31 12:19:29;;;;;;;9.55;3.15;;;;;;;30.21;40.51;99849.00;1752146;80;21729;-77
2022/05/31 12:22:44;;;;;;;11.15;2.98;;;;;;;30.21;38.56;99845.60;1752436;80;21694;-77
2022/05/31 12:25:55;;;;;;;11.75;2.58;;;;;;;30.23;37.45;99837.64;1752572;82;21209;-77
2022/05/31 12:29:48;;;;;;;10.82;2.30;;;;;;;30.23;36.91;99823.55;1763952;80;21729;-77
2022/05/31 12:32:55;;;;;;;11.73;2.87;;;;;;;30.24;36.87;99815.33;1763556;80;21797;-77
2022/05/31 12:36:03;;;;;;;14.38;2.70;;;;;;;30.28;37.46;99802.84;1752453;82;21538;-77
2022/05/31 12:39:33;;;;;;;10.23;2.52;;;;;;;30.26;38.04;99796.13;1755736;80;21162;-77
2022/05/31 12:42:46;;;;;;;6.58;2.85;;;;;;;30.27;38.82;99783.67;1747844;81;21538;-77
2022/05/31 12:45:53;;;;;;;12.68;2.55;;;;;;;30.31;38.33;99778.81;1770415;80;21689;-77
2022/05/31 12:49:06;;;;;;;7.47;2.67;;;;;;;30.32;37.10;99769.19;1780000;80;21168;-77
2022/05/31 12:53:18;;;;;;;12.53;2.75;;;;;;;30.33;36.57;99773.09;1773152;80;21121;-77
2022/05/31 12:55:38;;;;;;;17.87;3.05;;;;;;;30.30;36.32;99765.26;1738667;82;22123;-77
2022/05/31 12:58:56;;;;;;;18.67;3.22;;;;;;;30.23;36.14;99757.84;1750106;80;21859;-77
2022/05/31 13:02:06;;;;;;;13.95;3.08;;;;;;;30.17;35.81;99750.67;1753212;80;22175;-83
2022/05/31 13:05:17;;;;;;;16.07;3.40;;;;;;;30.13;36.32;99752.43;1770098;80;21754;-78
2022/05/31 13:08:28;;;;;;;13.95;3.05;;;;;;;30.10;36.99;99749.66;1757881;81;21212;-77
2022/05/31 13:22:17;;;;;;;23.55;3.22;;;;;;;30.07;36.49;99743.27;1770195;81;21762;-77
2022/05/31 13:25:30;;;;;;;8.70;2.62;;;;;;;30.00;36.28;99742.86;1769882;81;21142;-77
2022/05/31 13:28:42;;;;;;;12.07;2.83;;;;;;;29.98;36.70;99756.46;1769860;81;21158;-77
2022/05/31 13:32:05;;;;;;;13.85;3.37;;;;;;;29.98;36.39;99770.55;1767439;81;21552;-77
2022/05/31 13:35:26;;;;;;;11.53;2.95;;;;;;;29.96;36.99;99767.20;1737886;82;21262;-77
2022/05/31 13:38:33;;;;;;;9.28;2.75;;;;;;;29.97;36.32;99771.69;1738946;82;21201;-77
2022/05/31 13:41:38;;;;;;;10.25;2.75;;;;;;;29.94;36.02;99777.98;1743019;81;21515;-77
2022/05/31 13:44:44;;;;;;;10.10;2.98;;;;;;;29.94;37.00;99785.03;1751437;81;21122;-77
2022/05/31 13:48:06;;;;;;;11.43;2.95;;;;;;;29.91;37.26;99784.24;1752118;81;21190;-77
2022/05/31 13:51:18;;;;;;;8.80;2.30;;;;;;;29.88;36.31;99784.86;1739329;82;21159;-77
2022/05/31 13:54:26;;;;;;;16.67;3.35;;;;;;;29.82;36.49;99777.69;1756341;80;21157;-76
2022/05/31 13:57:31;;;;;;;15.72;3.12;;;;;;;29.74;36.45;99771.67;1735378;82;21675;-78
2022/05/31 14:00:55;;;;;;;13.13;3.00;;;;;;;29.65;36.44;99767.10;1771093;80;21188;-78
2022/05/31 14:04:01;;;;;;;18.50;3.20;;;;;;;29.56;37.37;99761.38;1740281;81;21208;-78
2022/05/31 14:07:11;;;;;;;21.42;3.65;;;;;;;29.46;37.00;99749.72;1738388;82;21181;-77
2022/05/31 14:10:17;;;;;;;24.70;3.00;;;;;;;29.38;37.42;99748.22;1741485;81;21142;-76
2022/05/31 14:13:29;;;;;;;11.65;3.20;;;;;;;29.28;37.16;99740.25;1750186;81;21203;-76
2022/05/31 14:16:48;;;;;;;12.55;2.92;;;;;;;29.16;37.00;99744.16;1728576;83;21276;-76
2022/05/31 14:19:54;;;;;;;18.52;3.15;;;;;;;29.02;37.47;99753.17;1748118;81;21169;-76
2022/05/31 14:23:02;;;;;;;11.50;3.22;;;;;;;28.89;37.82;99751.15;1751030;81;21158;-77
2022/05/31 14:26:09;;;;;;;;;;;;;;;28.81;38.06;99761.17;1752647;81;21154;-77
2022/05/31 14:29:26;;;;;;;9.23;3.20;;;;;;;28.75;38.74;99765.23;1713273;82;20218;-76
2022/05/31 14:32:35;;;;;;;12.98;2.72;;;;;;;28.68;38.76;99773.23;1739962;81;21561;-76
2022/05/31 14:35:49;;;;;;;17.17;3.50;;;;;;;28.59;38.78;99777.32;1768641;81;21154;-77
2022/05/31 14:38:54;;;;;;;12.93;3.65;;;;;;;28.46;39.02;99789.36;1769730;81;21319;-77
2022/05/31 14:42:02;;;;;;;11.00;3.30;;;;;;;28.46;39.02;99789.36;1769775;81;21169;-77
2022/05/31 14:45:08;;;;;;;11.85;3.47;;;;;;;28.43;38.83;99789.42;1769486;81;21173;-77
2022/05/31 14:48:49;;;;;;;24.12;3.17;;;;;;;28.38;39.14;99792.33;1769856;81;21236;-77
2022/05/31 14:51:56;;;;;;;23.65;3.22;;;;;;;28.33;39.94;99794.36;1725832;82;21180;-77
2022/05/31 14:55:20;;;;;;;16.35;3.47;;;;;;;28.19;41.26;99795.14;1769297;81;21161;-77
2022/05/31 14:58:43;;;;;;;15.60;3.08;;;;;;;28.06;41.47;99798.71;1762401;81;21225;-77
2022/05/31 15:01:54;;;;;;;17.17;3.00;;;;;;;27.97;41.24;99807.56;1768967;81;21224;-77
2022/05/31 15:05:04;;;;;;;18.52;4.20;;;;;;;27.88;40.99;99817.81;1768911;81;21878;-77
2022/05/31 15:08:10;;;;;;;12.10;3.15;;;;;;;27.81;41.30;99822.42;1769302;81;21205;-77
2022/05/31 15:21:30;;;;;;;10.98;3.92;;;;;;;27.54;42.84;99830.61;1770066;81;21213;-77
2022/05/31 15:24:41;;;;;;;18.10;4.12;;;;;;;27.45;43.55;99836.05;1769682;81;21162;-77
2022/05/31 15:27:43;;;;;;;12.85;3.40;;;;;;;27.38;43.85;99840.61;1769851;81;21189;-77
2022/05/31 15:30:50;;;;;;;14.18;3.55;;;;;;;27.29;44.21;99827.53;1762057;81;21472;-77
2022/05/31 15:33:58;;;;;;;17.20;3.90;;;;;;;27.19;45.13;99836.34;1756863;81;21193;-77
2022/05/31 15:37:03;;;;;;;16.15;3.40;;;;;;;27.10;46.33;99841.50;1769882;81;21217;-77
2022/05/31 15:40:11;;;;;;;14.30;3.95;;;;;;;26.97;46.23;99841.63;1769541;81;21702;-77
2022/05/31 15:43:51;;;;;;;17.35;3.75;;;;;;;26.84;45.67;99843.14;1760701;81;21224;-77
2022/05/31 15:46:24;;;;;;;12.30;3.80;;;;;;;26.74;46.03;99848.28;1770101;81;21189;-77
2022/05/31 15:49:34;;;;;;;20.40;4.10;;;;;;;26.64;46.37;99848.95;1782353;80;21169;-77